sensor_id;sensor_type;location;lat;lon;timestamp;P1;durP1;ratioP1;P2;durP2;ratioP2
11847;SDS011;5983;49.966;8.052;2022-10-16T00:01:27;1.07;;;0.70;;
11847;SDS011;5983;49.966;8.052;2022-10-16T00:03:56;4.17;;;0.40;;
11847;SDS011;5983;49.966;8.052;2022-10-16T00:06:26;4.17;;;0.60;;
11847;SDS011;5983;49.966;8.052;2022-10-16T00:08:54;1.90;;;0.53;;
11847;SDS011;5983;49.966;8.052;2022-10-16T00:11:23;1.33;;;0.83;;
11847;SDS011;5983;49.966;8.052;2022-10-16T00:13:54;2.67;;;0.80;;
11847;SDS011;5983;49.966;8.052;2022-10-16T00:16:26;3.17;;;0.50;;
11847;SDS011;5983;49.966;8.052;2022-10-16T00:18:54;0.60;;;0.57;;
11847;SDS011;5983;49.966;8.052;2022-10-16T00:21:23;2.13;;;0.70;;
11847;SDS011;5983;49.966;8.052;2022-10-16T00:23:53;2.33;;;0.60;;
11847;SDS011;5983;49.966;8.052;2022-10-16T00:26:22;3.33;;;0.70;;
11847;SDS011;5983;49.966;8.052;2022-10-16T00:28:49;0.73;;;0.50;;
11847;SDS011;5983;49.966;8.052;2022-10-16T00:31:18;3.50;;;0.60;;
11847;SDS011;5983;49.966;8.052;2022-10-16T00:33:48;2.50;;;0.70;;
11847;SDS011;5983;49.966;8.052;2022-10-16T00:36:17;1.43;;;0.80;;
11847;SDS011;5983;49.966;8.052;2022-10-16T00:38:46;1.30;;;0.53;;
11847;SDS011;5983;49.966;8.052;2022-10-16T00:41:17;1.60;;;0.70;;
11847;SDS011;5983;49.966;8.052;2022-10-16T00:43:47;2.57;;;0.87;;
11847;SDS011;5983;49.966;8.052;2022-10-16T00:46:17;3.03;;;0.97;;
11847;SDS011;5983;49.966;8.052;2022-10-16T00:48:51;1.90;;;0.80;;
11847;SDS011;5983;49.966;8.052;2022-10-16T00:51:24;3.43;;;1.03;;
11847;SDS011;5983;49.966;8.052;2022-10-16T00:53:57;1.37;;;0.90;;
11847;SDS011;5983;49.966;8.052;2022-10-16T00:56:26;1.57;;;0.83;;
11847;SDS011;5983;49.966;8.052;2022-10-16T00:58:53;0.80;;;0.70;;
11847;SDS011;5983;49.966;8.052;2022-10-16T01:01:20;4.07;;;0.80;;
11847;SDS011;5983;49.966;8.052;2022-10-16T01:03:47;4.53;;;0.80;;
11847;SDS011;5983;49.966;8.052;2022-10-16T01:06:30;0.97;;;0.87;;
11847;SDS011;5983;49.966;8.052;2022-10-16T01:09:10;1.07;;;0.97;;
11847;SDS011;5983;49.966;8.052;2022-10-16T01:11:49;2.07;;;0.80;;
11847;SDS011;5983;49.966;8.052;2022-10-16T01:14:30;1.07;;;0.97;;
11847;SDS011;5983;49.966;8.052;2022-10-16T01:17:10;1.53;;;0.93;;
11847;SDS011;5983;49.966;8.052;2022-10-16T01:19:50;5.47;;;0.90;;
11847;SDS011;5983;49.966;8.052;2022-10-16T01:22:42;1.60;;;0.93;;
11847;SDS011;5983;49.966;8.052;2022-10-16T01:25:22;3.67;;;0.90;;
11847;SDS011;5983;49.966;8.052;2022-10-16T01:28:05;2.03;;;0.70;;
11847;SDS011;5983;49.966;8.052;2022-10-16T01:30:37;1.17;;;1.03;;
11847;SDS011;5983;49.966;8.052;2022-10-16T01:33:08;0.80;;;0.77;;
11847;SDS011;5983;49.966;8.052;2022-10-16T01:35:43;1.03;;;0.80;;
11847;SDS011;5983;49.966;8.052;2022-10-16T01:38:19;5.27;;;0.80;;
11847;SDS011;5983;49.966;8.052;2022-10-16T01:40:58;0.90;;;0.70;;
11847;SDS011;5983;49.966;8.052;2022-10-16T01:43:37;2.93;;;0.83;;
11847;SDS011;5983;49.966;8.052;2022-10-16T01:46:09;1.43;;;0.90;;
11847;SDS011;5983;49.966;8.052;2022-10-16T01:48:40;1.63;;;0.80;;
11847;SDS011;5983;49.966;8.052;2022-10-16T01:51:08;2.10;;;0.80;;
11847;SDS011;5983;49.966;8.052;2022-10-16T01:53:39;1.37;;;0.70;;
11847;SDS011;5983;49.966;8.052;2022-10-16T01:56:09;1.37;;;0.80;;
11847;SDS011;5983;49.966;8.052;2022-10-16T01:58:43;1.63;;;0.70;;
11847;SDS011;5983;49.966;8.052;2022-10-16T02:01:15;3.40;;;1.23;;
11847;SDS011;5983;49.966;8.052;2022-10-16T02:03:46;1.43;;;0.70;;
11847;SDS011;5983;49.966;8.052;2022-10-16T02:06:18;3.03;;;0.93;;
11847;SDS011;5983;49.966;8.052;2022-10-16T02:08:46;1.10;;;1.00;;
11847;SDS011;5983;49.966;8.052;2022-10-16T02:11:13;1.10;;;1.00;;
11847;SDS011;5983;49.966;8.052;2022-10-16T02:13:43;1.50;;;0.90;;
11847;SDS011;5983;49.966;8.052;2022-10-16T02:16:15;0.63;;;0.63;;
11847;SDS011;5983;49.966;8.052;2022-10-16T02:18:42;1.10;;;1.00;;
11847;SDS011;5983;49.966;8.052;2022-10-16T02:21:11;0.77;;;0.77;;
11847;SDS011;5983;49.966;8.052;2022-10-16T02:23:47;2.50;;;0.97;;
11847;SDS011;5983;49.966;8.052;2022-10-16T02:26:25;2.37;;;1.20;;
11847;SDS011;5983;49.966;8.052;2022-10-16T02:29:01;0.73;;;0.73;;
11847;SDS011;5983;49.966;8.052;2022-10-16T02:31:35;3.17;;;0.80;;
11847;SDS011;5983;49.966;8.052;2022-10-16T02:34:09;1.70;;;1.03;;
11847;SDS011;5983;49.966;8.052;2022-10-16T02:36:39;1.33;;;0.97;;
11847;SDS011;5983;49.966;8.052;2022-10-16T02:39:09;1.03;;;0.93;;
11847;SDS011;5983;49.966;8.052;2022-10-16T02:41:37;4.30;;;1.10;;
11847;SDS011;5983;49.966;8.052;2022-10-16T02:44:06;1.17;;;0.90;;
11847;SDS011;5983;49.966;8.052;2022-10-16T02:46:33;1.83;;;0.80;;
11847;SDS011;5983;49.966;8.052;2022-10-16T02:48:59;1.37;;;1.00;;
11847;SDS011;5983;49.966;8.052;2022-10-16T02:51:26;1.10;;;0.93;;
11847;SDS011;5983;49.966;8.052;2022-10-16T02:53:53;1.13;;;0.87;;
11847;SDS011;5983;49.966;8.052;2022-10-16T02:56:20;0.77;;;0.70;;
11847;SDS011;5983;49.966;8.052;2022-10-16T02:58:48;1.67;;;1.00;;
11847;SDS011;5983;49.966;8.052;2022-10-16T03:01:16;0.80;;;0.80;;
11847;SDS011;5983;49.966;8.052;2022-10-16T03:03:43;1.57;;;0.90;;
11847;SDS011;5983;49.966;8.052;2022-10-16T03:06:10;2.07;;;1.10;;
11847;SDS011;5983;49.966;8.052;2022-10-16T03:08:37;0.80;;;0.80;;
11847;SDS011;5983;49.966;8.052;2022-10-16T03:11:04;1.20;;;1.10;;
11847;SDS011;5983;49.966;8.052;2022-10-16T03:13:31;7.77;;;2.23;;
11847;SDS011;5983;49.966;8.052;2022-10-16T03:15:58;1.10;;;0.70;;
11847;SDS011;5983;49.966;8.052;2022-10-16T03:18:26;3.60;;;0.80;;
11847;SDS011;5983;49.966;8.052;2022-10-16T03:20:53;1.07;;;0.80;;
11847;SDS011;5983;49.966;8.052;2022-10-16T03:23:20;1.53;;;0.70;;
11847;SDS011;5983;49.966;8.052;2022-10-16T03:25:47;1.00;;;0.90;;
11847;SDS011;5983;49.966;8.052;2022-10-16T03:28:14;5.57;;;0.93;;
11847;SDS011;5983;49.966;8.052;2022-10-16T03:30:41;3.23;;;1.73;;
11847;SDS011;5983;49.966;8.052;2022-10-16T03:33:09;1.13;;;1.03;;
11847;SDS011;5983;49.966;8.052;2022-10-16T03:35:37;1.97;;;1.13;;
11847;SDS011;5983;49.966;8.052;2022-10-16T03:38:04;2.23;;;1.00;;
11847;SDS011;5983;49.966;8.052;2022-10-16T03:40:31;1.17;;;1.00;;
11847;SDS011;5983;49.966;8.052;2022-10-16T03:42:58;5.27;;;1.00;;
11847;SDS011;5983;49.966;8.052;2022-10-16T03:45:25;3.90;;;0.87;;
11847;SDS011;5983;49.966;8.052;2022-10-16T03:47:52;1.27;;;1.17;;
11847;SDS011;5983;49.966;8.052;2022-10-16T03:50:19;0.80;;;0.80;;
11847;SDS011;5983;49.966;8.052;2022-10-16T03:52:47;1.27;;;1.17;;
11847;SDS011;5983;49.966;8.052;2022-10-16T03:55:14;3.40;;;1.03;;
11847;SDS011;5983;49.966;8.052;2022-10-16T03:57:41;0.80;;;0.80;;
11847;SDS011;5983;49.966;8.052;2022-10-16T04:00:08;2.40;;;0.70;;
11847;SDS011;5983;49.966;8.052;2022-10-16T04:02:37;0.70;;;0.67;;
11847;SDS011;5983;49.966;8.052;2022-10-16T04:05:05;1.07;;;0.80;;
11847;SDS011;5983;49.966;8.052;2022-10-16T04:07:32;1.00;;;0.80;;
11847;SDS011;5983;49.966;8.052;2022-10-16T04:10:00;8.07;;;1.40;;
11847;SDS011;5983;49.966;8.052;2022-10-16T04:12:28;1.43;;;0.70;;
11847;SDS011;5983;49.966;8.052;2022-10-16T04:14:55;1.73;;;0.70;;
11847;SDS011;5983;49.966;8.052;2022-10-16T04:17:22;0.90;;;0.90;;
11847;SDS011;5983;49.966;8.052;2022-10-16T04:19:48;0.77;;;0.77;;
11847;SDS011;5983;49.966;8.052;2022-10-16T04:22:15;2.33;;;1.00;;
11847;SDS011;5983;49.966;8.052;2022-10-16T04:24:42;0.60;;;0.60;;
11847;SDS011;5983;49.966;8.052;2022-10-16T04:27:11;1.50;;;0.80;;
11847;SDS011;5983;49.966;8.052;2022-10-16T04:29:37;0.97;;;0.87;;
11847;SDS011;5983;49.966;8.052;2022-10-16T04:32:04;0.60;;;0.60;;
11847;SDS011;5983;49.966;8.052;2022-10-16T04:34:33;0.90;;;0.83;;
11847;SDS011;5983;49.966;8.052;2022-10-16T04:37:00;1.00;;;0.80;;
11847;SDS011;5983;49.966;8.052;2022-10-16T04:39:27;2.20;;;1.13;;
11847;SDS011;5983;49.966;8.052;2022-10-16T04:41:54;2.33;;;1.07;;
11847;SDS011;5983;49.966;8.052;2022-10-16T04:44:22;1.63;;;0.90;;
11847;SDS011;5983;49.966;8.052;2022-10-16T04:46:50;0.73;;;0.73;;
11847;SDS011;5983;49.966;8.052;2022-10-16T04:49:17;1.43;;;0.70;;
11847;SDS011;5983;49.966;8.052;2022-10-16T04:51:44;1.13;;;0.80;;
11847;SDS011;5983;49.966;8.052;2022-10-16T04:54:11;1.27;;;0.90;;
11847;SDS011;5983;49.966;8.052;2022-10-16T04:56:38;1.10;;;0.80;;
11847;SDS011;5983;49.966;8.052;2022-10-16T04:59:11;0.97;;;0.87;;
11847;SDS011;5983;49.966;8.052;2022-10-16T05:01:40;0.80;;;0.80;;
11847;SDS011;5983;49.966;8.052;2022-10-16T05:04:07;0.80;;;0.70;;
11847;SDS011;5983;49.966;8.052;2022-10-16T05:06:34;1.10;;;1.00;;
11847;SDS011;5983;49.966;8.052;2022-10-16T05:09:03;3.30;;;0.90;;
11847;SDS011;5983;49.966;8.052;2022-10-16T05:11:30;1.70;;;1.10;;
11847;SDS011;5983;49.966;8.052;2022-10-16T05:13:57;2.93;;;0.97;;
11847;SDS011;5983;49.966;8.052;2022-10-16T05:16:24;1.00;;;0.90;;
11847;SDS011;5983;49.966;8.052;2022-10-16T05:18:53;1.40;;;1.00;;
11847;SDS011;5983;49.966;8.052;2022-10-16T05:21:20;2.53;;;0.80;;
11847;SDS011;5983;49.966;8.052;2022-10-16T05:23:47;1.17;;;1.00;;
11847;SDS011;5983;49.966;8.052;2022-10-16T05:26:14;3.20;;;0.90;;
11847;SDS011;5983;49.966;8.052;2022-10-16T05:28:41;1.70;;;0.97;;
11847;SDS011;5983;49.966;8.052;2022-10-16T05:31:08;1.47;;;0.90;;
11847;SDS011;5983;49.966;8.052;2022-10-16T05:33:36;1.50;;;0.93;;
11847;SDS011;5983;49.966;8.052;2022-10-16T05:36:06;1.00;;;0.80;;
11847;SDS011;5983;49.966;8.052;2022-10-16T05:38:35;2.50;;;1.00;;
11847;SDS011;5983;49.966;8.052;2022-10-16T05:41:03;3.50;;;0.90;;
11847;SDS011;5983;49.966;8.052;2022-10-16T05:43:31;0.70;;;0.70;;
11847;SDS011;5983;49.966;8.052;2022-10-16T05:45:59;1.70;;;0.90;;
11847;SDS011;5983;49.966;8.052;2022-10-16T05:48:30;2.13;;;0.80;;
11847;SDS011;5983;49.966;8.052;2022-10-16T05:50:58;0.60;;;0.60;;
11847;SDS011;5983;49.966;8.052;2022-10-16T05:53:28;0.60;;;0.60;;
11847;SDS011;5983;49.966;8.052;2022-10-16T05:55:57;1.03;;;0.93;;
11847;SDS011;5983;49.966;8.052;2022-10-16T05:58:24;1.93;;;0.87;;
11847;SDS011;5983;49.966;8.052;2022-10-16T06:00:55;1.00;;;0.90;;
11847;SDS011;5983;49.966;8.052;2022-10-16T06:03:24;0.93;;;0.70;;
11847;SDS011;5983;49.966;8.052;2022-10-16T06:05:51;0.80;;;0.77;;
11847;SDS011;5983;49.966;8.052;2022-10-16T06:08:20;6.07;;;1.30;;
11847;SDS011;5983;49.966;8.052;2022-10-16T06:10:57;4.20;;;1.37;;
11847;SDS011;5983;49.966;8.052;2022-10-16T06:13:27;1.67;;;0.80;;
11847;SDS011;5983;49.966;8.052;2022-10-16T06:15:56;1.00;;;0.90;;
11847;SDS011;5983;49.966;8.052;2022-10-16T06:18:24;2.70;;;0.90;;
11847;SDS011;5983;49.966;8.052;2022-10-16T06:20:52;1.87;;;0.90;;
11847;SDS011;5983;49.966;8.052;2022-10-16T06:23:19;1.47;;;0.93;;
11847;SDS011;5983;49.966;8.052;2022-10-16T06:25:46;0.87;;;0.83;;
11847;SDS011;5983;49.966;8.052;2022-10-16T06:28:14;1.93;;;0.73;;
11847;SDS011;5983;49.966;8.052;2022-10-16T06:30:42;1.00;;;0.80;;
11847;SDS011;5983;49.966;8.052;2022-10-16T06:33:10;2.83;;;0.70;;
11847;SDS011;5983;49.966;8.052;2022-10-16T06:35:37;1.20;;;0.93;;
11847;SDS011;5983;49.966;8.052;2022-10-16T06:38:04;0.77;;;0.77;;
11847;SDS011;5983;49.966;8.052;2022-10-16T06:40:31;1.13;;;1.03;;
11847;SDS011;5983;49.966;8.052;2022-10-16T06:42:58;1.03;;;0.90;;
11847;SDS011;5983;49.966;8.052;2022-10-16T06:45:26;2.50;;;1.10;;
11847;SDS011;5983;49.966;8.052;2022-10-16T06:47:53;1.23;;;1.10;;
11847;SDS011;5983;49.966;8.052;2022-10-16T06:50:20;1.13;;;1.03;;
11847;SDS011;5983;49.966;8.052;2022-10-16T06:52:47;1.20;;;0.87;;
11847;SDS011;5983;49.966;8.052;2022-10-16T06:55:14;1.87;;;1.40;;
11847;SDS011;5983;49.966;8.052;2022-10-16T06:57:42;1.27;;;1.17;;
11847;SDS011;5983;49.966;8.052;2022-10-16T07:00:09;4.20;;;1.30;;
11847;SDS011;5983;49.966;8.052;2022-10-16T07:02:38;1.37;;;1.27;;
11847;SDS011;5983;49.966;8.052;2022-10-16T07:05:05;2.87;;;1.30;;
11847;SDS011;5983;49.966;8.052;2022-10-16T07:07:33;1.40;;;1.20;;
11847;SDS011;5983;49.966;8.052;2022-10-16T07:10:00;2.97;;;1.40;;
11847;SDS011;5983;49.966;8.052;2022-10-16T07:12:26;1.77;;;1.40;;
11847;SDS011;5983;49.966;8.052;2022-10-16T07:14:53;1.30;;;1.17;;
11847;SDS011;5983;49.966;8.052;2022-10-16T07:17:21;1.90;;;1.57;;
11847;SDS011;5983;49.966;8.052;2022-10-16T07:19:49;1.37;;;1.10;;
11847;SDS011;5983;49.966;8.052;2022-10-16T07:22:18;1.17;;;1.07;;
11847;SDS011;5983;49.966;8.052;2022-10-16T07:24:45;1.20;;;1.10;;
11847;SDS011;5983;49.966;8.052;2022-10-16T07:27:12;1.20;;;1.10;;
11847;SDS011;5983;49.966;8.052;2022-10-16T07:29:40;1.13;;;1.03;;
11847;SDS011;5983;49.966;8.052;2022-10-16T07:32:07;1.83;;;1.60;;
11847;SDS011;5983;49.966;8.052;2022-10-16T07:34:34;1.27;;;1.07;;
11847;SDS011;5983;49.966;8.052;2022-10-16T07:37:02;1.40;;;1.30;;
11847;SDS011;5983;49.966;8.052;2022-10-16T07:39:29;3.50;;;1.40;;
11847;SDS011;5983;49.966;8.052;2022-10-16T07:41:56;3.27;;;1.50;;
11847;SDS011;5983;49.966;8.052;2022-10-16T07:44:23;2.73;;;1.43;;
11847;SDS011;5983;49.966;8.052;2022-10-16T07:46:50;1.50;;;1.40;;
11847;SDS011;5983;49.966;8.052;2022-10-16T07:49:17;1.60;;;1.40;;
11847;SDS011;5983;49.966;8.052;2022-10-16T07:51:44;1.33;;;1.03;;
11847;SDS011;5983;49.966;8.052;2022-10-16T07:54:12;1.57;;;1.47;;
11847;SDS011;5983;49.966;8.052;2022-10-16T07:56:39;1.57;;;1.20;;
11847;SDS011;5983;49.966;8.052;2022-10-16T07:59:06;1.00;;;0.93;;
11847;SDS011;5983;49.966;8.052;2022-10-16T08:01:33;1.73;;;1.47;;
11847;SDS011;5983;49.966;8.052;2022-10-16T08:04:00;1.63;;;1.30;;
11847;SDS011;5983;49.966;8.052;2022-10-16T08:06:27;1.37;;;1.23;;
11847;SDS011;5983;49.966;8.052;2022-10-16T08:08:54;3.70;;;1.20;;
11847;SDS011;5983;49.966;8.052;2022-10-16T08:11:23;1.67;;;1.50;;
11847;SDS011;5983;49.966;8.052;2022-10-16T08:13:50;2.80;;;1.57;;
11847;SDS011;5983;49.966;8.052;2022-10-16T08:16:17;2.90;;;2.07;;
11847;SDS011;5983;49.966;8.052;2022-10-16T08:18:45;1.43;;;1.33;;
11847;SDS011;5983;49.966;8.052;2022-10-16T08:21:13;1.67;;;1.57;;
11847;SDS011;5983;49.966;8.052;2022-10-16T08:23:43;2.53;;;1.73;;
11847;SDS011;5983;49.966;8.052;2022-10-16T08:26:10;2.10;;;1.90;;
11847;SDS011;5983;49.966;8.052;2022-10-16T08:28:39;1.90;;;1.33;;
11847;SDS011;5983;49.966;8.052;2022-10-16T08:31:07;2.03;;;1.83;;
11847;SDS011;5983;49.966;8.052;2022-10-16T08:33:35;1.70;;;1.60;;
11847;SDS011;5983;49.966;8.052;2022-10-16T08:36:03;2.17;;;1.60;;
11847;SDS011;5983;49.966;8.052;2022-10-16T08:38:31;3.67;;;1.43;;
11847;SDS011;5983;49.966;8.052;2022-10-16T08:41:01;1.37;;;1.27;;
11847;SDS011;5983;49.966;8.052;2022-10-16T08:44:16;1.50;;;1.40;;
11847;SDS011;5983;49.966;8.052;2022-10-16T08:47:02;1.93;;;1.77;;
11847;SDS011;5983;49.966;8.052;2022-10-16T08:49:45;1.73;;;1.47;;
11847;SDS011;5983;49.966;8.052;2022-10-16T08:52:23;1.83;;;1.60;;
11847;SDS011;5983;49.966;8.052;2022-10-16T08:54:56;1.43;;;1.33;;
11847;SDS011;5983;49.966;8.052;2022-10-16T08:57:24;2.70;;;2.13;;
11847;SDS011;5983;49.966;8.052;2022-10-16T08:59:54;2.33;;;1.70;;
11847;SDS011;5983;49.966;8.052;2022-10-16T09:02:32;2.07;;;1.67;;
11847;SDS011;5983;49.966;8.052;2022-10-16T09:05:15;3.27;;;1.53;;
11847;SDS011;5983;49.966;8.052;2022-10-16T09:07:54;2.80;;;2.10;;
11847;SDS011;5983;49.966;8.052;2022-10-16T09:10:37;3.40;;;1.90;;
11847;SDS011;5983;49.966;8.052;2022-10-16T09:13:17;2.40;;;1.60;;
11847;SDS011;5983;49.966;8.052;2022-10-16T09:15:56;2.80;;;1.60;;
11847;SDS011;5983;49.966;8.052;2022-10-16T09:18:41;3.83;;;1.73;;
11847;SDS011;5983;49.966;8.052;2022-10-16T09:21:19;1.87;;;1.50;;
11847;SDS011;5983;49.966;8.052;2022-10-16T09:23:50;1.50;;;1.40;;
11847;SDS011;5983;49.966;8.052;2022-10-16T09:26:19;2.23;;;1.40;;
11847;SDS011;5983;49.966;8.052;2022-10-16T09:28:47;1.47;;;1.07;;
11847;SDS011;5983;49.966;8.052;2022-10-16T09:31:17;2.57;;;1.73;;
11847;SDS011;5983;49.966;8.052;2022-10-16T09:33:47;1.50;;;1.40;;
11847;SDS011;5983;49.966;8.052;2022-10-16T09:36:20;3.67;;;1.60;;
11847;SDS011;5983;49.966;8.052;2022-10-16T09:38:49;11.40;;;5.80;;
11847;SDS011;5983;49.966;8.052;2022-10-16T09:41:19;5.13;;;3.27;;
11847;SDS011;5983;49.966;8.052;2022-10-16T09:43:49;7.13;;;4.47;;
11847;SDS011;5983;49.966;8.052;2022-10-16T09:46:24;6.27;;;4.30;;
11847;SDS011;5983;49.966;8.052;2022-10-16T09:48:56;5.57;;;3.57;;
11847;SDS011;5983;49.966;8.052;2022-10-16T09:51:26;2.67;;;2.47;;
11847;SDS011;5983;49.966;8.052;2022-10-16T09:53:55;4.10;;;2.10;;
11847;SDS011;5983;49.966;8.052;2022-10-16T09:56:26;1.50;;;1.30;;
11847;SDS011;5983;49.966;8.052;2022-10-16T09:58:56;1.30;;;1.20;;
11847;SDS011;5983;49.966;8.052;2022-10-16T10:01:28;2.20;;;1.10;;
11847;SDS011;5983;49.966;8.052;2022-10-16T10:04:01;1.60;;;1.03;;
11847;SDS011;5983;49.966;8.052;2022-10-16T10:06:29;0.80;;;0.80;;
11847;SDS011;5983;49.966;8.052;2022-10-16T10:09:00;3.43;;;0.97;;
11847;SDS011;5983;49.966;8.052;2022-10-16T10:11:46;1.10;;;1.00;;
11847;SDS011;5983;49.966;8.052;2022-10-16T10:14:18;1.90;;;1.40;;
11847;SDS011;5983;49.966;8.052;2022-10-16T10:17:02;1.43;;;1.10;;
11847;SDS011;5983;49.966;8.052;2022-10-16T10:19:41;1.00;;;0.87;;
11847;SDS011;5983;49.966;8.052;2022-10-16T10:22:17;1.03;;;0.80;;
11847;SDS011;5983;49.966;8.052;2022-10-16T10:24:59;1.27;;;0.90;;
11847;SDS011;5983;49.966;8.052;2022-10-16T10:27:45;1.20;;;0.90;;
11847;SDS011;5983;49.966;8.052;2022-10-16T10:30:27;0.90;;;0.90;;
11847;SDS011;5983;49.966;8.052;2022-10-16T10:33:14;1.53;;;0.83;;
11847;SDS011;5983;49.966;8.052;2022-10-16T10:35:52;4.30;;;0.90;;
11847;SDS011;5983;49.966;8.052;2022-10-16T10:38:37;1.40;;;1.00;;
11847;SDS011;5983;49.966;8.052;2022-10-16T10:41:14;0.60;;;0.60;;
11847;SDS011;5983;49.966;8.052;2022-10-16T10:44:07;0.73;;;0.70;;
11847;SDS011;5983;49.966;8.052;2022-10-16T10:46:45;2.80;;;0.80;;
11847;SDS011;5983;49.966;8.052;2022-10-16T10:52:24;3.67;;;0.90;;
11847;SDS011;5983;49.966;8.052;2022-10-16T10:55:09;1.57;;;0.93;;
11847;SDS011;5983;49.966;8.052;2022-10-16T10:57:50;4.60;;;1.00;;
11847;SDS011;5983;49.966;8.052;2022-10-16T11:00:54;4.13;;;0.73;;
11847;SDS011;5983;49.966;8.052;2022-10-16T11:03:42;5.60;;;0.80;;
11847;SDS011;5983;49.966;8.052;2022-10-16T11:06:51;1.13;;;0.70;;
11847;SDS011;5983;49.966;8.052;2022-10-16T11:09:25;0.93;;;0.80;;
11847;SDS011;5983;49.966;8.052;2022-10-16T11:11:59;1.17;;;0.70;;
11847;SDS011;5983;49.966;8.052;2022-10-16T11:14:34;2.93;;;0.73;;
11847;SDS011;5983;49.966;8.052;2022-10-16T11:17:10;2.70;;;0.90;;
11847;SDS011;5983;49.966;8.052;2022-10-16T11:19:44;1.67;;;0.83;;
11847;SDS011;5983;49.966;8.052;2022-10-16T11:22:18;0.80;;;0.80;;
11847;SDS011;5983;49.966;8.052;2022-10-16T11:24:51;1.60;;;0.70;;
11847;SDS011;5983;49.966;8.052;2022-10-16T11:27:27;0.80;;;0.80;;
11847;SDS011;5983;49.966;8.052;2022-10-16T11:30:04;1.07;;;0.60;;
11847;SDS011;5983;49.966;8.052;2022-10-16T11:32:47;4.47;;;0.90;;
11847;SDS011;5983;49.966;8.052;2022-10-16T11:35:29;1.20;;;0.70;;
11847;SDS011;5983;49.966;8.052;2022-10-16T11:38:10;0.73;;;0.73;;
11847;SDS011;5983;49.966;8.052;2022-10-16T11:40:50;1.87;;;0.70;;
11847;SDS011;5983;49.966;8.052;2022-10-16T11:43:24;1.00;;;0.87;;
11847;SDS011;5983;49.966;8.052;2022-10-16T11:45:58;0.60;;;0.60;;
11847;SDS011;5983;49.966;8.052;2022-10-16T11:48:35;0.80;;;0.80;;
11847;SDS011;5983;49.966;8.052;2022-10-16T11:51:11;2.30;;;0.97;;
11847;SDS011;5983;49.966;8.052;2022-10-16T11:53:53;0.93;;;0.70;;
11847;SDS011;5983;49.966;8.052;2022-10-16T11:56:28;2.57;;;0.90;;
11847;SDS011;5983;49.966;8.052;2022-10-16T11:58:59;2.77;;;1.03;;
11847;SDS011;5983;49.966;8.052;2022-10-16T12:01:33;0.90;;;0.67;;
11847;SDS011;5983;49.966;8.052;2022-10-16T12:04:12;1.63;;;0.63;;
11847;SDS011;5983;49.966;8.052;2022-10-16T12:06:50;0.97;;;0.70;;
11847;SDS011;5983;49.966;8.052;2022-10-16T12:09:26;0.80;;;0.63;;
11847;SDS011;5983;49.966;8.052;2022-10-16T12:11:57;0.70;;;0.70;;
11847;SDS011;5983;49.966;8.052;2022-10-16T12:17:23;0.80;;;0.70;;
11847;SDS011;5983;49.966;8.052;2022-10-16T12:19:57;1.00;;;0.70;;
11847;SDS011;5983;49.966;8.052;2022-10-16T12:22:27;0.70;;;0.63;;
11847;SDS011;5983;49.966;8.052;2022-10-16T12:24:58;1.80;;;0.63;;
11847;SDS011;5983;49.966;8.052;2022-10-16T12:27:27;2.10;;;0.77;;
11847;SDS011;5983;49.966;8.052;2022-10-16T12:29:57;0.83;;;0.60;;
11847;SDS011;5983;49.966;8.052;2022-10-16T12:32:28;0.80;;;0.80;;
11847;SDS011;5983;49.966;8.052;2022-10-16T12:34:59;0.70;;;0.60;;
11847;SDS011;5983;49.966;8.052;2022-10-16T12:37:29;0.77;;;0.70;;
11847;SDS011;5983;49.966;8.052;2022-10-16T12:40:10;0.80;;;0.67;;
11847;SDS011;5983;49.966;8.052;2022-10-16T12:42:40;0.87;;;0.87;;
11847;SDS011;5983;49.966;8.052;2022-10-16T12:45:22;0.70;;;0.70;;
11847;SDS011;5983;49.966;8.052;2022-10-16T12:47:55;1.00;;;0.63;;
11847;SDS011;5983;49.966;8.052;2022-10-16T12:50:23;0.70;;;0.70;;
11847;SDS011;5983;49.966;8.052;2022-10-16T12:52:57;1.17;;;0.70;;
11847;SDS011;5983;49.966;8.052;2022-10-16T12:55:27;4.00;;;0.80;;
11847;SDS011;5983;49.966;8.052;2022-10-16T12:58:16;5.17;;;0.83;;
11847;SDS011;5983;49.966;8.052;2022-10-16T13:01:16;0.77;;;0.73;;
11847;SDS011;5983;49.966;8.052;2022-10-16T13:04:10;1.10;;;0.73;;
11847;SDS011;5983;49.966;8.052;2022-10-16T13:07:10;0.67;;;0.67;;
11847;SDS011;5983;49.966;8.052;2022-10-16T13:10:00;1.07;;;0.77;;
11847;SDS011;5983;49.966;8.052;2022-10-16T13:12:45;1.50;;;0.87;;
11847;SDS011;5983;49.966;8.052;2022-10-16T13:15:47;1.23;;;1.13;;
11847;SDS011;5983;49.966;8.052;2022-10-16T13:18:28;3.27;;;0.97;;
11847;SDS011;5983;49.966;8.052;2022-10-16T13:21:07;1.10;;;0.90;;
11847;SDS011;5983;49.966;8.052;2022-10-16T13:24:00;0.93;;;0.90;;
11847;SDS011;5983;49.966;8.052;2022-10-16T13:26:39;1.13;;;1.00;;
11847;SDS011;5983;49.966;8.052;2022-10-16T13:29:15;1.30;;;1.20;;
11847;SDS011;5983;49.966;8.052;2022-10-16T13:31:42;1.67;;;0.90;;
11847;SDS011;5983;49.966;8.052;2022-10-16T13:34:11;1.90;;;1.03;;
11847;SDS011;5983;49.966;8.052;2022-10-16T13:36:44;1.43;;;0.93;;
11847;SDS011;5983;49.966;8.052;2022-10-16T13:39:20;1.33;;;1.00;;
11847;SDS011;5983;49.966;8.052;2022-10-16T13:42:02;1.10;;;1.00;;
11847;SDS011;5983;49.966;8.052;2022-10-16T13:44:36;1.33;;;0.90;;
11847;SDS011;5983;49.966;8.052;2022-10-16T13:47:15;2.17;;;1.13;;
11847;SDS011;5983;49.966;8.052;2022-10-16T13:49:44;1.47;;;1.30;;
11847;SDS011;5983;49.966;8.052;2022-10-16T13:52:18;1.10;;;1.00;;
11847;SDS011;5983;49.966;8.052;2022-10-16T13:54:47;2.13;;;1.00;;
11847;SDS011;5983;49.966;8.052;2022-10-16T13:57:14;3.53;;;1.00;;
11847;SDS011;5983;49.966;8.052;2022-10-16T13:59:43;1.83;;;1.20;;
11847;SDS011;5983;49.966;8.052;2022-10-16T14:02:15;5.90;;;4.47;;
11847;SDS011;5983;49.966;8.052;2022-10-16T14:04:51;15.20;;;12.00;;
11847;SDS011;5983;49.966;8.052;2022-10-16T14:07:20;23.67;;;18.50;;
11847;SDS011;5983;49.966;8.052;2022-10-16T14:09:51;15.80;;;12.23;;
11847;SDS011;5983;49.966;8.052;2022-10-16T14:12:20;6.47;;;5.33;;
11847;SDS011;5983;49.966;8.052;2022-10-16T14:14:51;23.53;;;18.73;;
11847;SDS011;5983;49.966;8.052;2022-10-16T14:17:22;17.37;;;12.43;;
11847;SDS011;5983;49.966;8.052;2022-10-16T14:19:53;15.43;;;11.90;;
11847;SDS011;5983;49.966;8.052;2022-10-16T14:22:28;11.83;;;10.17;;
11847;SDS011;5983;49.966;8.052;2022-10-16T14:24:59;9.40;;;7.27;;
11847;SDS011;5983;49.966;8.052;2022-10-16T14:27:28;10.53;;;8.67;;
11847;SDS011;5983;49.966;8.052;2022-10-16T14:30:13;39.07;;;27.73;;
11847;SDS011;5983;49.966;8.052;2022-10-16T14:32:52;43.20;;;33.93;;
11847;SDS011;5983;49.966;8.052;2022-10-16T14:35:22;32.47;;;25.67;;
11847;SDS011;5983;49.966;8.052;2022-10-16T14:37:52;14.93;;;12.60;;
11847;SDS011;5983;49.966;8.052;2022-10-16T14:40:21;7.63;;;6.17;;
11847;SDS011;5983;49.966;8.052;2022-10-16T14:42:52;5.73;;;4.87;;
11847;SDS011;5983;49.966;8.052;2022-10-16T14:45:22;6.60;;;3.23;;
11847;SDS011;5983;49.966;8.052;2022-10-16T14:47:54;2.13;;;2.00;;
11847;SDS011;5983;49.966;8.052;2022-10-16T14:50:24;2.33;;;1.90;;
11847;SDS011;5983;49.966;8.052;2022-10-16T14:52:51;2.50;;;1.50;;
11847;SDS011;5983;49.966;8.052;2022-10-16T14:55:19;3.43;;;2.47;;
11847;SDS011;5983;49.966;8.052;2022-10-16T14:57:46;2.23;;;1.90;;
11847;SDS011;5983;49.966;8.052;2022-10-16T15:00:15;6.20;;;1.40;;
11847;SDS011;5983;49.966;8.052;2022-10-16T15:02:48;2.83;;;1.20;;
11847;SDS011;5983;49.966;8.052;2022-10-16T15:05:16;2.30;;;1.40;;
11847;SDS011;5983;49.966;8.052;2022-10-16T15:07:47;4.70;;;3.17;;
11847;SDS011;5983;49.966;8.052;2022-10-16T15:10:15;4.07;;;3.70;;
11847;SDS011;5983;49.966;8.052;2022-10-16T15:12:44;3.03;;;2.47;;
11847;SDS011;5983;49.966;8.052;2022-10-16T15:15:24;2.73;;;2.20;;
11847;SDS011;5983;49.966;8.052;2022-10-16T15:18:01;3.70;;;1.60;;
11847;SDS011;5983;49.966;8.052;2022-10-16T15:20:30;2.53;;;1.53;;
11847;SDS011;5983;49.966;8.052;2022-10-16T15:22:59;1.23;;;1.10;;
11847;SDS011;5983;49.966;8.052;2022-10-16T15:25:32;2.17;;;1.40;;
11847;SDS011;5983;49.966;8.052;2022-10-16T15:28:02;3.60;;;1.40;;
11847;SDS011;5983;49.966;8.052;2022-10-16T15:30:31;2.57;;;1.50;;
11847;SDS011;5983;49.966;8.052;2022-10-16T15:32:59;1.67;;;1.57;;
11847;SDS011;5983;49.966;8.052;2022-10-16T15:35:28;3.40;;;1.80;;